Πλησιέστερες Αναφορές METAR

 

LGTS - Thessaloniki/Makedonia-Elev 7m
Distance from station: Ν 13km
Ενημερώθηκε: 01/12/2020 01:50
Μερικώς νεφελώδης
Μερικώς νεφελώδης
 Ανεμος από ΒΒΔ
Ανεμος: ΒΒΔ 26 km/h
Θερμοκρασία: 6°C
Wind Chill: 2°C
Σημείο Δρόσου: 0°C
Υγρασία: 66%
Βαρόμετρο: 1022 hPa
Clouds: Μερικώς νεφελώδης
Visibility: 10 km
Cloud details: Few Clouds 305 m
Μερικώς νεφελώδης 762 m
2020/11/30 23:50 LGTS 302350Z 34014KT 9999 FEW010 SCT025 06/00 Q1022 NOSIG
LGAV - Athens/Elef. Venizelos-Elev 94m
Distance from station: ΝΝΑ 312km
Ενημερώθηκε: 01/12/2020 01:50
Σχεδόν νεφελώδης
Σχεδόν νεφελώδης
 Ανεμος από Β
Ανεμος: Β 22 km/h, Ριπή: 41 km/h
Θερμοκρασία: 12°C
Σημείο Δρόσου: 9°C
Υγρασία: 82%
Βαρόμετρο: 1016 hPa
Clouds: Σχεδόν νεφελώδης
Visibility: 10 km
Cloud details: Few Clouds 610 m
Σχεδόν νεφελώδης 914 m
2020/11/30 23:50 LGAV 302350Z 35012G22KT 320V020 9999 FEW020 BKN030 12/09 Q1016 NOSIG
 
LGAL - Alexandroupolis-Elev 3m
Distance from station: Α 251km
Ενημερώθηκε: 30/11/2020 19:50
Μη Ενημερωμένο!
Μερικώς νεφελώδης
Μερικώς νεφελώδης
 Ανεμος από ΒΒΑ
Ανεμος: ΒΒΑ 37 km/h, Ριπή: 61 km/h
Θερμοκρασία: 6°C
Wind Chill: 1°C
Σημείο Δρόσου: -3°C
Υγρασία: 53%
Βαρόμετρο: 1020 hPa
Clouds: Μερικώς νεφελώδης
Visibility: 10 km
Cloud details: Few Clouds 610 m
Μερικώς νεφελώδης 762 m
2020/11/30 17:50 LGAL 301750Z 02020G33KT 9999 FEW020 SCT025 06/M03 Q1020
LGKV - Kavala/Crysoupolis-Elev 5m
Distance from station: ΑΒΑ 144km
Ενημερώθηκε: 30/11/2020 19:50
Μη Ενημερωμένο!
Ασθενής βροχή, Συννεφιά
Ασθενής βροχή, Συννεφιά
 Ανεμος από ΑΒΑ
Ανεμος: ΑΒΑ 15 km/h
Θερμοκρασία: 7°C
Wind Chill: 4°C
Σημείο Δρόσου: 5°C
Υγρασία: 87%
Βαρόμετρο: 1019 hPa
Συνθήκες: Ασθενής βροχή
Clouds: Συννεφιά
Visibility: 10 km
Cloud details: Few Clouds 244 m
Σχεδόν νεφελώδης 762 m
Συννεφιά 2134 m
2020/11/30 17:50 LGKV 301750Z 07008KT 9999 -RA FEW008 BKN025 OVC070 07/05 Q1019
 
LGSK - Skiathos Island-Elev 15m
Distance from station: ΝΝΑ 168km
Ενημερώθηκε: 30/11/2020 16:50
Μη Ενημερωμένο!
Σχεδόν νεφελώδης
Σχεδόν νεφελώδης
 Ανεμος από ΒΒΔ
Ανεμος: ΒΒΔ 28 km/h
Θερμοκρασία: 13°C
Σημείο Δρόσου: 10°C
Υγρασία: 82%
Βαρόμετρο: 1015 hPa
Clouds: Σχεδόν νεφελώδης
Visibility: 7 km
Cloud details: Μερικώς νεφελώδης 305 m
Σχεδόν νεφελώδης 762 m
2020/11/30 14:50 LGSK 301450Z 33015KT 7000 SCT010 BKN025 13/10 Q1015
LGLM - Limnos Island-Elev 5m
Distance from station: ΑΝΑ 210km
Ενημερώθηκε: 01/12/2020 01:50
Μερικώς νεφελώδης
Μερικώς νεφελώδης
 Ανεμος από ΒΑ
Ανεμος: ΒΑ 41 km/h, Ριπή: 63 km/h
Θερμοκρασία: 8°C
Wind Chill: 3°C
Σημείο Δρόσου: 4°C
Υγρασία: 76%
Βαρόμετρο: 1019 hPa
Clouds: Μερικώς νεφελώδης
Visibility: 10 km
Cloud details: Μερικώς νεφελώδης 610 m
2020/11/30 23:50 LGLM 302350Z 05022G34KT 9999 SCT020 08/04 Q1019
 
LGMT - Mitilini Island-Elev 17m
Distance from station: ΑΝΑ 358km
Ενημερώθηκε: 01/12/2020 01:50
Few Clouds
Few Clouds
 Ανεμος από Α
Ανεμος: Α 15 km/h
Θερμοκρασία: 13°C
Σημείο Δρόσου: 8°C
Υγρασία: 72%
Βαρόμετρο: 1016 hPa
Clouds: Few Clouds
Visibility: 10 km
Cloud details: Few Clouds 610 m
2020/11/30 23:50 LGMT 302350Z 10008KT 9999 FEW020 13/08 Q1016
LGSY - Skiros Island-Elev 15m
Distance from station: ΝΑ 227km
Ενημερώθηκε: 01/12/2020 01:50
Ασθενής βροχή, Σχεδόν νεφελώδης
Ασθενής βροχή, Σχεδόν νεφελώδης
 Ανεμος από ΒΒΑ
Ανεμος: ΒΒΑ 31 km/h, Ριπή: 50 km/h
Θερμοκρασία: 10°C
Wind Chill: 7°C
Σημείο Δρόσου: 9°C
Υγρασία: 94%
Βαρόμετρο: 1018 hPa
Συνθήκες: Ασθενής βροχή
Clouds: Σχεδόν νεφελώδης
Visibility: 6 km
Cloud details: Μερικώς νεφελώδης 244 m
Σχεδόν νεφελώδης 488 m
2020/11/30 23:50 LGSY 302350Z 03017G27KT 6000 -RA SCT008 BKN016 10/09 Q1018 RMK OVC080 WHT
 
LGKZ - Kozani-Elev 628m
Distance from station: ΔΝΔ 102km
Ενημερώθηκε: 01/12/2020 01:50

 Ανεμος από ΒΒΔ
Ανεμος: ΒΒΔ 24 km/h, Ριπή: 44 km/h
Θερμοκρασία: 1°C
Wind Chill: -4°C
Σημείο Δρόσου: -7°C
Υγρασία: 56%
Βαρόμετρο: 1020 hPa
2020/11/30 23:50 LGKZ 302350Z AUTO 34013G24KT 310V020 //// // ////// 01/M07 Q1020 RE//
LGIO - Ioannina-Elev 476m
Distance from station: ΔΝΔ 209km
Ενημερώθηκε: 01/12/2020 01:50

 Ανεμος από varies
Ανεμος: varies 4 km/h
Θερμοκρασία: 3°C
Σημείο Δρόσου: 2°C
Υγρασία: 93%
Βαρόμετρο: 1017 hPa
2020/11/30 23:50 LGIO 302350Z AUTO VRB02KT //// // ////// 03/02 Q1017 RE//
 
LGZA - Zakinthos-Elev 3m
Distance from station: ΝΝΔ 367km
Ενημερώθηκε: 30/11/2020 19:50
Μη Ενημερωμένο!
Few Clouds
Few Clouds
 Ανεμος από varies
Ανεμος: varies 4 km/h
Θερμοκρασία: 13°C
Σημείο Δρόσου: 11°C
Υγρασία: 88%
Βαρόμετρο: 1014 hPa
Clouds: Few Clouds
Visibility: 10 km
Cloud details: Few Clouds 610 m
2020/11/30 17:50 LGZA 301750Z VRB02KT 9999 FEW020 13/11 Q1014
LGKR - Corfu Island-Elev 2m
Distance from station: ΔΝΔ 282km
Ενημερώθηκε: 01/12/2020 01:50
Few Clouds
Few Clouds
 Ανεμος από calm
Ανεμος: Απνοια
Θερμοκρασία: 11°C
Σημείο Δρόσου: 10°C
Υγρασία: 94%
Βαρόμετρο: 1015 hPa
Clouds: Few Clouds
Visibility: 10 km
Cloud details: Few Clouds 914 m
2020/11/30 23:50 LGKR 302350Z 00000KT 9999 FEW030 11/10 Q1015 NOSIG
 
LGSO - Syros Island-Elev 72m
Distance from station: ΝΝΑ 397km
Ενημερώθηκε: 01/12/2020 01:50

 Ανεμος από ΔΒΔ
Ανεμος: ΔΒΔ 15 km/h
Θερμοκρασία: 15°C
Σημείο Δρόσου: 11°C
Υγρασία: 77%
Βαρόμετρο: 1014 hPa
2020/11/30 23:50 LGSO 302350Z AUTO 29008KT //// // ////// 15/11 Q1014 RE//
LGMK - Mikonos Island-Elev 123m
Distance from station: ΝΝΑ 412km
Ενημερώθηκε: 30/11/2020 19:50
Μη Ενημερωμένο!
Μερικώς νεφελώδης
Μερικώς νεφελώδης
 Ανεμος από Α
Ανεμος: Α 17 km/h
Θερμοκρασία: 15°C
Σημείο Δρόσου: 7°C
Υγρασία: 59%
Βαρόμετρο: 1014 hPa
Clouds: Μερικώς νεφελώδης
Visibility: 10 km
Cloud details: Few Clouds 396 m
Μερικώς νεφελώδης 762 m
2020/11/30 17:50 LGMK 301750Z 10009KT 9999 FEW013TCU SCT025 15/07 Q1014
 
LGSR - Santorini Island-Elev 40m
Distance from station: ΝΝΑ 520km
Ενημερώθηκε: 30/11/2020 19:50
Μη Ενημερωμένο!
Μερικώς νεφελώδης
Μερικώς νεφελώδης
 Ανεμος από ΒΒΔ
Ανεμος: ΒΒΔ 19 km/h
Θερμοκρασία: 16°C
Σημείο Δρόσου: 12°C
Υγρασία: 77%
Βαρόμετρο: 1014 hPa
Clouds: Μερικώς νεφελώδης
Visibility: 10 km
Cloud details: Μερικώς νεφελώδης 610 m
2020/11/30 17:50 LGSR 301750Z 34010KT 9999 SCT020TCU 16/12 Q1014 RETS
LGKL - Kalamata-Elev 8m
Distance from station: Ν 405km
Ενημερώθηκε: 01/12/2020 01:50
Few Clouds
Few Clouds
 Ανεμος από calm
Ανεμος: Απνοια
Θερμοκρασία: 9°C
Σημείο Δρόσου: 7°C
Υγρασία: 87%
Βαρόμετρο: 1015 hPa
Clouds: Few Clouds
Visibility: 10 km
Cloud details: Few Clouds 914 m
2020/11/30 23:50 LGKL 302350Z 00000KT 9999 FEW030 09/07 Q1015
 
LGIR - Iraklion/Crete-Elev 5m
Distance from station: ΝΝΑ 622km
Ενημερώθηκε: 01/12/2020 01:50
Μερικώς νεφελώδης
Μερικώς νεφελώδης
 Ανεμος από calm
Ανεμος: Απνοια
Θερμοκρασία: 14°C
Σημείο Δρόσου: 13°C
Υγρασία: 94%
Βαρόμετρο: 1013 hPa
Clouds: Μερικώς νεφελώδης
Visibility: 10 km
Cloud details: Few Clouds 610 m
Μερικώς νεφελώδης 2438 m
2020/11/30 23:50 LGIR 302350Z 00000KT 9999 FEW020TCU SCT080 14/13 Q1013 NOSIG
LGRP - Rhodes-Elev 5m
Distance from station: ΝΑ 649km
Ενημερώθηκε: 01/12/2020 01:50
Μερικώς νεφελώδης
Μερικώς νεφελώδης
 Ανεμος από varies
Ανεμος: varies 6 km/h
Θερμοκρασία: 15°C
Σημείο Δρόσου: 12°C
Υγρασία: 82%
Βαρόμετρο: 1013 hPa
Clouds: Μερικώς νεφελώδης
Visibility: 10 km
Cloud details: Few Clouds 549 m
Μερικώς νεφελώδης 762 m
2020/11/30 23:50 LGRP 302350Z VRB03KT 9999 FEW018 SCT025 15/12 Q1013 NOSIG
 
LWOH - Ohrid/FYROM-Elev 761m
Distance from station: ΔΒΔ 188km
Ενημερώθηκε: 30/11/2020 20:00
Μη Ενημερωμένο!
Few Clouds
Few Clouds
 Ανεμος από ΒΒΔ
Ανεμος: ΒΒΔ 26 km/h
Θερμοκρασία: 2°C
Wind Chill: -3°C
Σημείο Δρόσου: -6°C
Υγρασία: 56%
Βαρόμετρο: 1020 hPa
Clouds: Few Clouds
Visibility: 10 km
Cloud details: Few Clouds 1524 m
2020/11/30 18:00 LWOH 301800Z 34014KT 9999 FEW050 02/M06 Q1020
LBSF - Sofia/Bulgaria-Elev 595m
Distance from station: Β 227km
Ενημερώθηκε: 01/12/2020 02:00
Freezing fog, Σχεδόν νεφελώδης
Freezing fog, Σχεδόν νεφελώδης
 Ανεμος από varies
Ανεμος: varies 4 km/h
Θερμοκρασία: -10°C
Σημείο Δρόσου: -11°C
Υγρασία: 92%
Βαρόμετρο: 1023 hPa
Συνθήκες: Freezing Fog
Clouds: Σχεδόν νεφελώδης
Visibility: 0 km
Cloud details: Μερικώς νεφελώδης 61 m
Σχεδόν νεφελώδης 1006 m
2020/12/01 00:00 LBSF 010000Z VRB02KT 0350 R27/0375N FZFG SCT002 BKN033 M10/M11 Q1023 R99/19//95 NOSIG
Σημερινά ρεκόρ Μετεωρολογικού Σταθμού
Δεν έχει σημειωθεί νέο ρεκόρ μέχρι τις 02:03 σήμερα - 1/12/2020